sensor_id;sensor_type;location;lat;lon;timestamp;P1;durP1;ratioP1;P2;durP2;ratioP2
52180;SDS011;38158;53.338;6.514;2022-12-18T00:01:28;126.57;;;46.88;;
52180;SDS011;38158;53.338;6.514;2022-12-18T00:03:57;119.30;;;42.22;;
52180;SDS011;38158;53.338;6.514;2022-12-18T00:06:23;98.85;;;37.03;;
52180;SDS011;38158;53.338;6.514;2022-12-18T00:08:50;110.10;;;41.70;;
52180;SDS011;38158;53.338;6.514;2022-12-18T00:11:18;121.00;;;43.47;;
52180;SDS011;38158;53.338;6.514;2022-12-18T00:13:46;124.22;;;44.38;;
52180;SDS011;38158;53.338;6.514;2022-12-18T00:16:13;117.27;;;43.63;;
52180;SDS011;38158;53.338;6.514;2022-12-18T00:18:40;106.70;;;41.30;;
52180;SDS011;38158;53.338;6.514;2022-12-18T00:21:08;110.63;;;42.53;;
52180;SDS011;38158;53.338;6.514;2022-12-18T00:23:35;120.38;;;44.15;;
52180;SDS011;38158;53.338;6.514;2022-12-18T00:26:03;113.72;;;41.83;;
52180;SDS011;38158;53.338;6.514;2022-12-18T00:28:31;122.35;;;45.75;;
52180;SDS011;38158;53.338;6.514;2022-12-18T00:31:04;126.82;;;46.00;;
52180;SDS011;38158;53.338;6.514;2022-12-18T00:33:31;123.80;;;43.35;;
52180;SDS011;38158;53.338;6.514;2022-12-18T00:36:04;132.27;;;44.53;;
52180;SDS011;38158;53.338;6.514;2022-12-18T00:38:31;135.40;;;45.70;;
52180;SDS011;38158;53.338;6.514;2022-12-18T00:40:57;131.23;;;44.72;;
52180;SDS011;38158;53.338;6.514;2022-12-18T00:43:23;129.38;;;45.47;;
52180;SDS011;38158;53.338;6.514;2022-12-18T00:45:49;133.90;;;44.30;;
52180;SDS011;38158;53.338;6.514;2022-12-18T00:48:15;127.13;;;44.63;;
52180;SDS011;38158;53.338;6.514;2022-12-18T00:50:40;122.95;;;42.78;;
52180;SDS011;38158;53.338;6.514;2022-12-18T00:53:06;134.02;;;44.45;;
52180;SDS011;38158;53.338;6.514;2022-12-18T00:55:32;124.57;;;44.28;;
52180;SDS011;38158;53.338;6.514;2022-12-18T00:57:57;123.60;;;43.13;;
52180;SDS011;38158;53.338;6.514;2022-12-18T01:00:23;113.38;;;43.05;;
52180;SDS011;38158;53.338;6.514;2022-12-18T01:02:49;129.05;;;43.95;;
52180;SDS011;38158;53.338;6.514;2022-12-18T01:05:15;117.15;;;43.33;;
52180;SDS011;38158;53.338;6.514;2022-12-18T01:07:40;115.07;;;42.17;;
52180;SDS011;38158;53.338;6.514;2022-12-18T01:10:07;113.07;;;43.08;;
52180;SDS011;38158;53.338;6.514;2022-12-18T01:12:34;130.10;;;43.58;;
52180;SDS011;38158;53.338;6.514;2022-12-18T01:15:01;108.57;;;42.17;;
52180;SDS011;38158;53.338;6.514;2022-12-18T01:17:27;132.27;;;44.75;;
52180;SDS011;38158;53.338;6.514;2022-12-18T01:19:53;123.88;;;43.30;;
52180;SDS011;38158;53.338;6.514;2022-12-18T01:22:19;116.45;;;42.45;;
52180;SDS011;38158;53.338;6.514;2022-12-18T01:24:44;125.45;;;41.75;;
52180;SDS011;38158;53.338;6.514;2022-12-18T01:27:10;137.85;;;44.80;;
52180;SDS011;38158;53.338;6.514;2022-12-18T01:29:35;120.00;;;41.92;;
52180;SDS011;38158;53.338;6.514;2022-12-18T01:32:01;121.55;;;43.95;;
52180;SDS011;38158;53.338;6.514;2022-12-18T01:34:27;124.65;;;43.53;;
52180;SDS011;38158;53.338;6.514;2022-12-18T01:36:52;121.18;;;43.28;;
52180;SDS011;38158;53.338;6.514;2022-12-18T01:39:18;124.70;;;43.55;;
52180;SDS011;38158;53.338;6.514;2022-12-18T01:41:44;127.82;;;42.33;;
52180;SDS011;38158;53.338;6.514;2022-12-18T01:47:29;118.03;;;41.60;;
52180;SDS011;38158;53.338;6.514;2022-12-18T01:49:59;121.70;;;41.25;;
52180;SDS011;38158;53.338;6.514;2022-12-18T01:52:31;113.50;;;40.17;;
52180;SDS011;38158;53.338;6.514;2022-12-18T01:54:59;108.57;;;41.08;;
52180;SDS011;38158;53.338;6.514;2022-12-18T01:57:26;97.70;;;37.60;;
52180;SDS011;38158;53.338;6.514;2022-12-18T01:59:53;109.05;;;41.80;;
52180;SDS011;38158;53.338;6.514;2022-12-18T02:02:24;124.90;;;42.78;;
52180;SDS011;38158;53.338;6.514;2022-12-18T02:04:53;116.00;;;38.75;;
52180;SDS011;38158;53.338;6.514;2022-12-18T02:09:49;97.07;;;37.83;;
52180;SDS011;38158;53.338;6.514;2022-12-18T02:12:24;104.70;;;38.45;;
52180;SDS011;38158;53.338;6.514;2022-12-18T02:15:07;92.55;;;36.20;;
52180;SDS011;38158;53.338;6.514;2022-12-18T02:17:47;104.47;;;35.60;;
52180;SDS011;38158;53.338;6.514;2022-12-18T02:20:36;100.90;;;37.30;;
52180;SDS011;38158;53.338;6.514;2022-12-18T02:29:00;83.47;;;35.42;;
52180;SDS011;38158;53.338;6.514;2022-12-18T02:31:30;96.60;;;36.67;;
52180;SDS011;38158;53.338;6.514;2022-12-18T02:34:00;90.82;;;36.35;;
52180;SDS011;38158;53.338;6.514;2022-12-18T02:36:29;91.57;;;35.85;;
52180;SDS011;38158;53.338;6.514;2022-12-18T02:38:58;92.30;;;35.67;;
52180;SDS011;38158;53.338;6.514;2022-12-18T02:41:27;98.40;;;36.72;;
52180;SDS011;38158;53.338;6.514;2022-12-18T02:43:55;95.80;;;36.38;;
52180;SDS011;38158;53.338;6.514;2022-12-18T02:46:28;95.00;;;34.75;;
52180;SDS011;38158;53.338;6.514;2022-12-18T02:48:56;89.60;;;36.17;;
52180;SDS011;38158;53.338;6.514;2022-12-18T02:51:55;89.35;;;31.90;;
52180;SDS011;38158;53.338;6.514;2022-12-18T02:54:39;88.90;;;33.92;;
52180;SDS011;38158;53.338;6.514;2022-12-18T02:57:23;90.15;;;34.42;;
52180;SDS011;38158;53.338;6.514;2022-12-18T02:59:59;98.20;;;35.53;;
52180;SDS011;38158;53.338;6.514;2022-12-18T03:07:56;98.43;;;36.58;;
52180;SDS011;38158;53.338;6.514;2022-12-18T03:10:29;91.35;;;33.53;;
52180;SDS011;38158;53.338;6.514;2022-12-18T03:13:03;88.72;;;34.10;;
52180;SDS011;38158;53.338;6.514;2022-12-18T03:15:34;88.05;;;33.85;;
52180;SDS011;38158;53.338;6.514;2022-12-18T03:18:17;96.40;;;37.03;;
52180;SDS011;38158;53.338;6.514;2022-12-18T03:21:07;98.35;;;35.85;;
52180;SDS011;38158;53.338;6.514;2022-12-18T03:23:40;95.78;;;35.83;;
52180;SDS011;38158;53.338;6.514;2022-12-18T03:26:12;80.18;;;31.23;;
52180;SDS011;38158;53.338;6.514;2022-12-18T03:28:42;95.97;;;34.30;;
52180;SDS011;38158;53.338;6.514;2022-12-18T03:31:22;92.53;;;35.08;;
52180;SDS011;38158;53.338;6.514;2022-12-18T03:33:55;94.50;;;36.80;;
52180;SDS011;38158;53.338;6.514;2022-12-18T03:36:23;93.80;;;35.20;;
52180;SDS011;38158;53.338;6.514;2022-12-18T03:38:49;92.50;;;35.85;;
52180;SDS011;38158;53.338;6.514;2022-12-18T03:41:28;88.22;;;34.55;;
52180;SDS011;38158;53.338;6.514;2022-12-18T03:44:02;99.28;;;35.80;;
52180;SDS011;38158;53.338;6.514;2022-12-18T03:46:43;96.50;;;33.45;;
52180;SDS011;38158;53.338;6.514;2022-12-18T03:55:01;89.22;;;34.47;;
52180;SDS011;38158;53.338;6.514;2022-12-18T03:57:28;89.22;;;36.45;;
52180;SDS011;38158;53.338;6.514;2022-12-18T03:59:58;99.93;;;37.58;;
52180;SDS011;38158;53.338;6.514;2022-12-18T04:02:28;95.65;;;34.72;;
52180;SDS011;38158;53.338;6.514;2022-12-18T04:04:56;99.43;;;37.45;;
52180;SDS011;38158;53.338;6.514;2022-12-18T04:07:25;95.32;;;36.25;;
52180;SDS011;38158;53.338;6.514;2022-12-18T04:09:53;101.65;;;35.88;;
52180;SDS011;38158;53.338;6.514;2022-12-18T04:12:25;94.65;;;35.78;;
52180;SDS011;38158;53.338;6.514;2022-12-18T04:14:53;93.20;;;36.95;;
52180;SDS011;38158;53.338;6.514;2022-12-18T04:17:19;96.40;;;36.25;;
52180;SDS011;38158;53.338;6.514;2022-12-18T04:19:45;90.35;;;34.30;;
52180;SDS011;38158;53.338;6.514;2022-12-18T04:22:11;91.72;;;36.38;;
52180;SDS011;38158;53.338;6.514;2022-12-18T04:24:36;96.80;;;37.08;;
52180;SDS011;38158;53.338;6.514;2022-12-18T04:27:02;92.38;;;35.90;;
52180;SDS011;38158;53.338;6.514;2022-12-18T04:29:29;91.18;;;36.92;;
52180;SDS011;38158;53.338;6.514;2022-12-18T04:31:54;95.85;;;37.28;;
52180;SDS011;38158;53.338;6.514;2022-12-18T04:34:20;89.88;;;35.67;;
52180;SDS011;38158;53.338;6.514;2022-12-18T04:36:46;83.97;;;35.70;;
52180;SDS011;38158;53.338;6.514;2022-12-18T04:39:12;90.20;;;36.03;;
52180;SDS011;38158;53.338;6.514;2022-12-18T04:41:37;88.85;;;33.70;;
52180;SDS011;38158;53.338;6.514;2022-12-18T04:44:03;83.28;;;35.53;;
52180;SDS011;38158;53.338;6.514;2022-12-18T04:46:29;93.03;;;35.58;;
52180;SDS011;38158;53.338;6.514;2022-12-18T04:48:55;91.13;;;34.70;;
52180;SDS011;38158;53.338;6.514;2022-12-18T04:51:21;78.03;;;32.90;;
52180;SDS011;38158;53.338;6.514;2022-12-18T04:53:46;86.25;;;32.95;;
52180;SDS011;38158;53.338;6.514;2022-12-18T04:56:13;85.95;;;37.10;;
52180;SDS011;38158;53.338;6.514;2022-12-18T04:58:40;85.93;;;34.67;;
52180;SDS011;38158;53.338;6.514;2022-12-18T05:01:07;85.00;;;33.22;;
52180;SDS011;38158;53.338;6.514;2022-12-18T05:03:34;85.55;;;33.63;;
52180;SDS011;38158;53.338;6.514;2022-12-18T05:06:01;92.07;;;32.72;;
52180;SDS011;38158;53.338;6.514;2022-12-18T05:08:27;93.13;;;34.15;;
52180;SDS011;38158;53.338;6.514;2022-12-18T05:11:03;85.93;;;34.33;;
52180;SDS011;38158;53.338;6.514;2022-12-18T05:13:31;85.15;;;32.90;;
52180;SDS011;38158;53.338;6.514;2022-12-18T05:15:57;89.28;;;32.88;;
52180;SDS011;38158;53.338;6.514;2022-12-18T05:18:23;80.00;;;33.53;;
52180;SDS011;38158;53.338;6.514;2022-12-18T05:20:50;86.13;;;33.60;;
52180;SDS011;38158;53.338;6.514;2022-12-18T05:23:16;85.13;;;32.65;;
52180;SDS011;38158;53.338;6.514;2022-12-18T05:25:42;79.60;;;31.10;;
52180;SDS011;38158;53.338;6.514;2022-12-18T05:28:18;82.13;;;32.28;;
52180;SDS011;38158;53.338;6.514;2022-12-18T05:30:47;82.80;;;33.00;;
52180;SDS011;38158;53.338;6.514;2022-12-18T05:33:14;77.22;;;30.15;;
52180;SDS011;38158;53.338;6.514;2022-12-18T05:35:40;79.88;;;32.42;;
52180;SDS011;38158;53.338;6.514;2022-12-18T05:38:06;85.90;;;31.63;;
52180;SDS011;38158;53.338;6.514;2022-12-18T05:40:31;80.32;;;31.80;;
52180;SDS011;38158;53.338;6.514;2022-12-18T05:42:57;80.25;;;31.63;;
52180;SDS011;38158;53.338;6.514;2022-12-18T05:45:23;80.13;;;31.10;;
52180;SDS011;38158;53.338;6.514;2022-12-18T05:47:48;81.55;;;31.23;;
52180;SDS011;38158;53.338;6.514;2022-12-18T05:50:14;72.22;;;31.90;;
52180;SDS011;38158;53.338;6.514;2022-12-18T05:52:40;79.55;;;30.88;;
52180;SDS011;38158;53.338;6.514;2022-12-18T05:55:06;82.57;;;31.50;;
52180;SDS011;38158;53.338;6.514;2022-12-18T05:57:32;80.10;;;31.92;;
52180;SDS011;38158;53.338;6.514;2022-12-18T05:59:58;72.90;;;31.10;;
52180;SDS011;38158;53.338;6.514;2022-12-18T06:02:23;70.15;;;29.52;;
52180;SDS011;38158;53.338;6.514;2022-12-18T06:04:49;71.13;;;29.80;;
52180;SDS011;38158;53.338;6.514;2022-12-18T06:07:15;76.75;;;29.58;;
52180;SDS011;38158;53.338;6.514;2022-12-18T06:09:40;77.10;;;30.25;;
52180;SDS011;38158;53.338;6.514;2022-12-18T06:12:06;72.22;;;29.95;;
52180;SDS011;38158;53.338;6.514;2022-12-18T06:14:32;75.40;;;29.90;;
52180;SDS011;38158;53.338;6.514;2022-12-18T06:16:57;78.55;;;28.98;;
52180;SDS011;38158;53.338;6.514;2022-12-18T06:19:23;75.80;;;29.70;;
52180;SDS011;38158;53.338;6.514;2022-12-18T06:21:49;82.75;;;31.92;;
52180;SDS011;38158;53.338;6.514;2022-12-18T06:24:15;84.95;;;32.30;;
52180;SDS011;38158;53.338;6.514;2022-12-18T06:26:41;76.57;;;28.98;;
52180;SDS011;38158;53.338;6.514;2022-12-18T06:29:06;71.18;;;30.08;;
52180;SDS011;38158;53.338;6.514;2022-12-18T06:31:32;72.40;;;28.88;;
52180;SDS011;38158;53.338;6.514;2022-12-18T06:33:58;72.38;;;30.13;;
52180;SDS011;38158;53.338;6.514;2022-12-18T06:36:24;68.20;;;28.90;;
52180;SDS011;38158;53.338;6.514;2022-12-18T06:38:49;71.70;;;28.83;;
52180;SDS011;38158;53.338;6.514;2022-12-18T06:41:16;76.95;;;29.20;;
52180;SDS011;38158;53.338;6.514;2022-12-18T06:43:43;71.63;;;28.70;;
52180;SDS011;38158;53.338;6.514;2022-12-18T06:46:09;67.60;;;27.17;;
52180;SDS011;38158;53.338;6.514;2022-12-18T06:48:35;71.45;;;28.40;;
52180;SDS011;38158;53.338;6.514;2022-12-18T06:51:01;70.10;;;28.20;;
52180;SDS011;38158;53.338;6.514;2022-12-18T06:53:27;72.88;;;28.08;;
52180;SDS011;38158;53.338;6.514;2022-12-18T06:55:59;63.08;;;27.42;;
52180;SDS011;38158;53.338;6.514;2022-12-18T06:58:25;65.47;;;27.15;;
52180;SDS011;38158;53.338;6.514;2022-12-18T07:00:52;71.47;;;26.25;;
52180;SDS011;38158;53.338;6.514;2022-12-18T07:03:18;63.95;;;26.65;;
52180;SDS011;38158;53.338;6.514;2022-12-18T07:05:43;68.75;;;28.10;;
52180;SDS011;38158;53.338;6.514;2022-12-18T07:08:09;62.13;;;26.70;;
52180;SDS011;38158;53.338;6.514;2022-12-18T07:10:40;59.45;;;26.05;;
52180;SDS011;38158;53.338;6.514;2022-12-18T07:13:07;64.68;;;28.67;;
52180;SDS011;38158;53.338;6.514;2022-12-18T07:15:33;60.22;;;24.45;;
52180;SDS011;38158;53.338;6.514;2022-12-18T07:17:58;63.60;;;24.55;;
52180;SDS011;38158;53.338;6.514;2022-12-18T07:20:24;58.38;;;24.55;;
52180;SDS011;38158;53.338;6.514;2022-12-18T07:22:49;60.83;;;25.00;;
52180;SDS011;38158;53.338;6.514;2022-12-18T07:25:15;54.95;;;23.60;;
52180;SDS011;38158;53.338;6.514;2022-12-18T07:27:41;59.63;;;25.02;;
52180;SDS011;38158;53.338;6.514;2022-12-18T07:30:07;56.45;;;24.40;;
52180;SDS011;38158;53.338;6.514;2022-12-18T07:32:33;56.17;;;22.38;;
52180;SDS011;38158;53.338;6.514;2022-12-18T07:34:59;56.17;;;24.25;;
52180;SDS011;38158;53.338;6.514;2022-12-18T07:37:25;48.85;;;22.38;;
52180;SDS011;38158;53.338;6.514;2022-12-18T07:39:51;54.83;;;24.95;;
52180;SDS011;38158;53.338;6.514;2022-12-18T07:42:16;50.45;;;23.85;;
52180;SDS011;38158;53.338;6.514;2022-12-18T07:44:58;57.30;;;23.40;;
52180;SDS011;38158;53.338;6.514;2022-12-18T07:49:50;56.47;;;24.13;;
52180;SDS011;38158;53.338;6.514;2022-12-18T07:52:16;52.20;;;23.58;;
52180;SDS011;38158;53.338;6.514;2022-12-18T07:54:41;54.42;;;24.85;;
52180;SDS011;38158;53.338;6.514;2022-12-18T07:57:07;51.33;;;23.67;;
52180;SDS011;38158;53.338;6.514;2022-12-18T07:59:34;54.40;;;24.90;;
52180;SDS011;38158;53.338;6.514;2022-12-18T08:01:59;53.63;;;23.52;;
52180;SDS011;38158;53.338;6.514;2022-12-18T08:04:26;55.42;;;25.60;;
52180;SDS011;38158;53.338;6.514;2022-12-18T08:06:51;52.67;;;23.60;;
52180;SDS011;38158;53.338;6.514;2022-12-18T08:09:17;48.22;;;23.40;;
52180;SDS011;38158;53.338;6.514;2022-12-18T08:11:43;49.38;;;23.20;;
52180;SDS011;38158;53.338;6.514;2022-12-18T08:14:09;51.80;;;22.08;;
52180;SDS011;38158;53.338;6.514;2022-12-18T08:16:35;45.45;;;22.08;;
52180;SDS011;38158;53.338;6.514;2022-12-18T08:19:01;48.30;;;22.00;;
52180;SDS011;38158;53.338;6.514;2022-12-18T08:21:28;49.90;;;22.37;;
52180;SDS011;38158;53.338;6.514;2022-12-18T08:23:56;44.85;;;23.13;;
52180;SDS011;38158;53.338;6.514;2022-12-18T08:26:23;44.35;;;22.00;;
52180;SDS011;38158;53.338;6.514;2022-12-18T08:28:52;46.10;;;22.70;;
52180;SDS011;38158;53.338;6.514;2022-12-18T08:31:20;45.20;;;23.40;;
52180;SDS011;38158;53.338;6.514;2022-12-18T08:33:48;38.22;;;19.30;;
52180;SDS011;38158;53.338;6.514;2022-12-18T08:36:15;42.13;;;21.05;;
52180;SDS011;38158;53.338;6.514;2022-12-18T08:38:40;39.38;;;20.15;;
52180;SDS011;38158;53.338;6.514;2022-12-18T08:41:07;46.97;;;21.27;;
52180;SDS011;38158;53.338;6.514;2022-12-18T08:43:38;42.13;;;21.75;;
52180;SDS011;38158;53.338;6.514;2022-12-18T08:46:23;45.72;;;22.38;;
52180;SDS011;38158;53.338;6.514;2022-12-18T08:48:51;46.42;;;22.65;;
52180;SDS011;38158;53.338;6.514;2022-12-18T08:51:19;43.25;;;21.83;;
52180;SDS011;38158;53.338;6.514;2022-12-18T08:53:45;39.60;;;19.77;;
52180;SDS011;38158;53.338;6.514;2022-12-18T08:56:11;45.90;;;22.23;;
52180;SDS011;38158;53.338;6.514;2022-12-18T08:58:38;44.00;;;23.00;;
52180;SDS011;38158;53.338;6.514;2022-12-18T09:01:05;42.30;;;22.90;;
52180;SDS011;38158;53.338;6.514;2022-12-18T09:03:33;45.20;;;21.88;;
52180;SDS011;38158;53.338;6.514;2022-12-18T09:05:59;43.92;;;22.35;;
52180;SDS011;38158;53.338;6.514;2022-12-18T09:08:25;44.97;;;22.92;;
52180;SDS011;38158;53.338;6.514;2022-12-18T09:10:52;40.87;;;21.43;;
52180;SDS011;38158;53.338;6.514;2022-12-18T09:13:18;45.10;;;23.17;;
52180;SDS011;38158;53.338;6.514;2022-12-18T09:15:45;45.90;;;22.50;;
52180;SDS011;38158;53.338;6.514;2022-12-18T09:18:13;42.45;;;21.85;;
52180;SDS011;38158;53.338;6.514;2022-12-18T09:20:40;40.67;;;21.05;;
52180;SDS011;38158;53.338;6.514;2022-12-18T09:23:06;40.17;;;20.88;;
52180;SDS011;38158;53.338;6.514;2022-12-18T09:25:33;38.30;;;20.45;;
52180;SDS011;38158;53.338;6.514;2022-12-18T09:28:01;40.10;;;20.40;;
52180;SDS011;38158;53.338;6.514;2022-12-18T09:30:28;36.13;;;19.42;;
52180;SDS011;38158;53.338;6.514;2022-12-18T09:32:53;37.85;;;19.58;;
52180;SDS011;38158;53.338;6.514;2022-12-18T09:35:19;39.60;;;20.75;;
52180;SDS011;38158;53.338;6.514;2022-12-18T09:37:45;39.38;;;22.33;;
52180;SDS011;38158;53.338;6.514;2022-12-18T09:40:14;37.13;;;19.70;;
52180;SDS011;38158;53.338;6.514;2022-12-18T09:42:48;39.17;;;21.65;;
52180;SDS011;38158;53.338;6.514;2022-12-18T09:45:18;38.97;;;20.17;;
52180;SDS011;38158;53.338;6.514;2022-12-18T09:47:45;36.22;;;20.17;;
52180;SDS011;38158;53.338;6.514;2022-12-18T09:52:59;38.70;;;20.02;;
52180;SDS011;38158;53.338;6.514;2022-12-18T09:55:35;35.58;;;18.70;;
52180;SDS011;38158;53.338;6.514;2022-12-18T10:00:34;37.88;;;19.77;;
52180;SDS011;38158;53.338;6.514;2022-12-18T10:03:08;32.20;;;18.42;;
52180;SDS011;38158;53.338;6.514;2022-12-18T10:16:35;32.35;;;18.92;;
52180;SDS011;38158;53.338;6.514;2022-12-18T10:21:41;31.60;;;18.15;;
52180;SDS011;38158;53.338;6.514;2022-12-18T10:27:09;29.13;;;17.27;;
52180;SDS011;38158;53.338;6.514;2022-12-18T10:29:40;30.15;;;17.13;;
52180;SDS011;38158;53.338;6.514;2022-12-18T10:32:12;26.35;;;15.05;;
52180;SDS011;38158;53.338;6.514;2022-12-18T10:37:15;24.90;;;15.20;;
52180;SDS011;38158;53.338;6.514;2022-12-18T10:40:04;20.67;;;13.10;;
52180;SDS011;38158;53.338;6.514;2022-12-18T10:42:39;26.33;;;15.05;;
52180;SDS011;38158;53.338;6.514;2022-12-18T10:45:11;21.80;;;12.88;;
52180;SDS011;38158;53.338;6.514;2022-12-18T10:47:43;25.60;;;15.07;;
52180;SDS011;38158;53.338;6.514;2022-12-18T10:50:28;22.58;;;13.05;;
52180;SDS011;38158;53.338;6.514;2022-12-18T10:53:00;22.42;;;13.63;;
52180;SDS011;38158;53.338;6.514;2022-12-18T10:55:35;19.70;;;11.65;;
52180;SDS011;38158;53.338;6.514;2022-12-18T10:58:15;19.65;;;11.68;;
52180;SDS011;38158;53.338;6.514;2022-12-18T11:01:01;18.27;;;10.57;;
52180;SDS011;38158;53.338;6.514;2022-12-18T11:04:21;19.90;;;11.20;;
52180;SDS011;38158;53.338;6.514;2022-12-18T11:06:22;23.73;;;12.35;;
52180;SDS011;38158;53.338;6.514;2022-12-18T11:11:49;20.48;;;11.63;;
52180;SDS011;38158;53.338;6.514;2022-12-18T11:14:20;21.45;;;11.57;;
52180;SDS011;38158;53.338;6.514;2022-12-18T11:16:49;19.95;;;11.57;;
52180;SDS011;38158;53.338;6.514;2022-12-18T11:21:47;18.38;;;10.73;;
52180;SDS011;38158;53.338;6.514;2022-12-18T11:24:20;19.20;;;12.05;;
52180;SDS011;38158;53.338;6.514;2022-12-18T11:26:54;19.23;;;11.68;;
52180;SDS011;38158;53.338;6.514;2022-12-18T11:29:31;21.30;;;11.65;;
52180;SDS011;38158;53.338;6.514;2022-12-18T11:34:57;19.98;;;11.38;;
52180;SDS011;38158;53.338;6.514;2022-12-18T11:37:33;19.33;;;11.82;;
52180;SDS011;38158;53.338;6.514;2022-12-18T11:40:10;18.33;;;11.85;;
52180;SDS011;38158;53.338;6.514;2022-12-18T11:45:28;22.50;;;12.18;;
52180;SDS011;38158;53.338;6.514;2022-12-18T11:50:54;18.60;;;12.10;;
52180;SDS011;38158;53.338;6.514;2022-12-18T11:53:22;19.02;;;12.27;;
52180;SDS011;38158;53.338;6.514;2022-12-18T11:55:53;22.40;;;11.82;;
52180;SDS011;38158;53.338;6.514;2022-12-18T12:01:20;18.08;;;12.38;;
52180;SDS011;38158;53.338;6.514;2022-12-18T12:10:00;17.35;;;11.30;;
52180;SDS011;38158;53.338;6.514;2022-12-18T12:18:49;15.43;;;9.90;;
52180;SDS011;38158;53.338;6.514;2022-12-18T12:21:26;17.10;;;11.00;;
52180;SDS011;38158;53.338;6.514;2022-12-18T12:31:58;20.17;;;10.45;;
52180;SDS011;38158;53.338;6.514;2022-12-18T12:39:43;17.08;;;8.98;;
52180;SDS011;38158;53.338;6.514;2022-12-18T12:42:13;17.67;;;9.70;;
52180;SDS011;38158;53.338;6.514;2022-12-18T12:45:05;20.08;;;8.90;;
52180;SDS011;38158;53.338;6.514;2022-12-18T12:47:32;16.48;;;8.90;;
52180;SDS011;38158;53.338;6.514;2022-12-18T12:50:03;16.55;;;9.30;;
52180;SDS011;38158;53.338;6.514;2022-12-18T12:52:40;15.25;;;8.65;;
52180;SDS011;38158;53.338;6.514;2022-12-18T12:55:13;15.70;;;9.63;;
52180;SDS011;38158;53.338;6.514;2022-12-18T12:57:46;14.65;;;9.18;;
52180;SDS011;38158;53.338;6.514;2022-12-18T13:00:20;12.80;;;8.15;;
52180;SDS011;38158;53.338;6.514;2022-12-18T13:07:59;14.07;;;8.25;;
52180;SDS011;38158;53.338;6.514;2022-12-18T13:13:11;15.00;;;8.52;;
52180;SDS011;38158;53.338;6.514;2022-12-18T13:23:27;15.45;;;10.75;;
52180;SDS011;38158;53.338;6.514;2022-12-18T13:30:59;14.10;;;7.95;;
52180;SDS011;38158;53.338;6.514;2022-12-18T13:35:55;12.77;;;7.97;;
52180;SDS011;38158;53.338;6.514;2022-12-18T13:41:47;13.75;;;8.23;;
52180;SDS011;38158;53.338;6.514;2022-12-18T13:44:40;11.77;;;7.43;;
52180;SDS011;38158;53.338;6.514;2022-12-18T13:49:50;15.00;;;9.43;;
52180;SDS011;38158;53.338;6.514;2022-12-18T13:52:18;13.13;;;8.75;;
52180;SDS011;38158;53.338;6.514;2022-12-18T13:55:20;10.98;;;7.60;;
52180;SDS011;38158;53.338;6.514;2022-12-18T13:57:43;14.63;;;9.20;;
52180;SDS011;38158;53.338;6.514;2022-12-18T14:00:19;11.93;;;7.97;;
52180;SDS011;38158;53.338;6.514;2022-12-18T14:02:55;16.35;;;10.05;;
52180;SDS011;38158;53.338;6.514;2022-12-18T14:05:30;14.35;;;9.00;;
52180;SDS011;38158;53.338;6.514;2022-12-18T14:08:01;13.43;;;8.90;;
52180;SDS011;38158;53.338;6.514;2022-12-18T14:10:31;11.68;;;7.57;;
52180;SDS011;38158;53.338;6.514;2022-12-18T14:12:57;12.70;;;7.10;;
52180;SDS011;38158;53.338;6.514;2022-12-18T14:18:01;10.27;;;6.32;;
52180;SDS011;38158;53.338;6.514;2022-12-18T14:20:49;14.25;;;7.40;;
52180;SDS011;38158;53.338;6.514;2022-12-18T14:25:51;11.27;;;6.47;;
52180;SDS011;38158;53.338;6.514;2022-12-18T14:28:17;12.18;;;6.88;;
52180;SDS011;38158;53.338;6.514;2022-12-18T14:30:43;11.63;;;8.02;;
52180;SDS011;38158;53.338;6.514;2022-12-18T14:33:14;14.25;;;7.85;;
52180;SDS011;38158;53.338;6.514;2022-12-18T14:35:41;12.63;;;7.38;;
52180;SDS011;38158;53.338;6.514;2022-12-18T14:41:02;12.35;;;7.40;;
52180;SDS011;38158;53.338;6.514;2022-12-18T14:43:34;16.40;;;9.25;;
52180;SDS011;38158;53.338;6.514;2022-12-18T14:46:01;13.07;;;7.65;;
52180;SDS011;38158;53.338;6.514;2022-12-18T14:51:02;12.93;;;8.32;;
52180;SDS011;38158;53.338;6.514;2022-12-18T14:55:56;20.75;;;11.30;;
52180;SDS011;38158;53.338;6.514;2022-12-18T14:58:22;14.38;;;8.88;;
52180;SDS011;38158;53.338;6.514;2022-12-18T15:00:47;15.27;;;9.25;;
52180;SDS011;38158;53.338;6.514;2022-12-18T15:03:17;17.88;;;9.18;;
52180;SDS011;38158;53.338;6.514;2022-12-18T15:05:45;14.38;;;9.70;;
52180;SDS011;38158;53.338;6.514;2022-12-18T15:08:25;16.40;;;10.30;;
52180;SDS011;38158;53.338;6.514;2022-12-18T15:10:54;18.63;;;11.32;;
52180;SDS011;38158;53.338;6.514;2022-12-18T15:13:22;18.20;;;11.35;;
52180;SDS011;38158;53.338;6.514;2022-12-18T15:15:49;17.13;;;10.73;;
52180;SDS011;38158;53.338;6.514;2022-12-18T15:18:17;21.85;;;12.63;;
52180;SDS011;38158;53.338;6.514;2022-12-18T15:23:19;16.75;;;11.27;;
52180;SDS011;38158;53.338;6.514;2022-12-18T15:25:47;17.65;;;12.25;;
52180;SDS011;38158;53.338;6.514;2022-12-18T15:28:26;17.55;;;11.85;;
52180;SDS011;38158;53.338;6.514;2022-12-18T15:31:21;20.77;;;12.88;;
52180;SDS011;38158;53.338;6.514;2022-12-18T15:36:17;16.17;;;11.00;;
52180;SDS011;38158;53.338;6.514;2022-12-18T15:38:47;17.98;;;11.15;;
52180;SDS011;38158;53.338;6.514;2022-12-18T15:41:13;19.10;;;11.35;;
52180;SDS011;38158;53.338;6.514;2022-12-18T15:43:40;19.08;;;10.90;;
52180;SDS011;38158;53.338;6.514;2022-12-18T15:46:09;16.40;;;11.40;;
52180;SDS011;38158;53.338;6.514;2022-12-18T15:48:44;20.63;;;12.15;;
52180;SDS011;38158;53.338;6.514;2022-12-18T15:51:16;18.67;;;11.40;;
52180;SDS011;38158;53.338;6.514;2022-12-18T15:53:45;17.33;;;11.68;;
52180;SDS011;38158;53.338;6.514;2022-12-18T15:58:58;17.50;;;11.02;;
52180;SDS011;38158;53.338;6.514;2022-12-18T16:01:25;20.13;;;11.60;;
52180;SDS011;38158;53.338;6.514;2022-12-18T16:03:54;18.73;;;12.18;;
52180;SDS011;38158;53.338;6.514;2022-12-18T16:06:20;17.17;;;10.75;;
52180;SDS011;38158;53.338;6.514;2022-12-18T16:08:47;20.15;;;12.38;;
52180;SDS011;38158;53.338;6.514;2022-12-18T16:11:26;16.63;;;10.80;;
52180;SDS011;38158;53.338;6.514;2022-12-18T16:14:10;18.92;;;11.02;;
52180;SDS011;38158;53.338;6.514;2022-12-18T16:16:43;19.55;;;11.75;;
52180;SDS011;38158;53.338;6.514;2022-12-18T16:19:09;17.65;;;11.27;;
52180;SDS011;38158;53.338;6.514;2022-12-18T16:21:35;15.85;;;10.10;;
52180;SDS011;38158;53.338;6.514;2022-12-18T16:24:01;17.50;;;10.52;;
52180;SDS011;38158;53.338;6.514;2022-12-18T16:26:26;16.27;;;11.20;;
52180;SDS011;38158;53.338;6.514;2022-12-18T16:28:52;16.42;;;11.07;;
52180;SDS011;38158;53.338;6.514;2022-12-18T16:31:18;21.08;;;11.98;;
52180;SDS011;38158;53.338;6.514;2022-12-18T16:33:44;15.55;;;10.60;;
52180;SDS011;38158;53.338;6.514;2022-12-18T16:36:09;17.45;;;10.85;;
52180;SDS011;38158;53.338;6.514;2022-12-18T16:38:35;18.20;;;11.75;;
52180;SDS011;38158;53.338;6.514;2022-12-18T16:41:01;17.55;;;11.32;;
52180;SDS011;38158;53.338;6.514;2022-12-18T16:44:05;16.45;;;10.23;;
52180;SDS011;38158;53.338;6.514;2022-12-18T16:46:31;18.10;;;10.75;;
52180;SDS011;38158;53.338;6.514;2022-12-18T16:48:57;17.48;;;9.73;;
52180;SDS011;38158;53.338;6.514;2022-12-18T16:51:25;21.35;;;10.82;;
52180;SDS011;38158;53.338;6.514;2022-12-18T16:53:52;14.57;;;9.15;;
52180;SDS011;38158;53.338;6.514;2022-12-18T16:56:21;16.80;;;9.45;;